Time;durP1;ratioP1;P1;durP2;ratioP2;P2;SDS_P1;SDS_P2;PMS_P1;PMS_P2;Temp;Humidity;BMP_temperature;BMP_pressure;BME280_temperature;BME280_humidity;BME280_pressure;Samples;Min_cycle;Max_cycle;Signal;HPM_P1;HPM_P2
2023/04/20 00:01:27;;;;;;;1.10;0.70;;;;;;;8.06;44.97;102480.28;4994803;28;97308;-31
2023/04/20 00:03:53;;;;;;;0.98;0.63;;;;;;;8.03;45.78;102474.94;4995912;28;98010;-32
2023/04/20 00:06:20;;;;;;;1.40;0.98;;;;;;;8.02;46.10;102478.56;4995923;28;96535;-31
2023/04/20 00:08:46;;;;;;;1.88;0.93;;;;;;;8.03;45.29;102473.16;4995004;28;96857;-31
2023/04/20 00:11:11;;;;;;;1.45;0.85;;;;;;;8.02;45.78;102482.16;4995542;28;97570;-30
2023/04/20 00:13:36;;;;;;;2.25;0.80;;;;;;;7.97;45.39;102470.59;4995481;28;99166;-31
2023/04/20 00:16:02;;;;;;;1.45;1.00;;;;;;;8.00;45.46;102470.50;4995588;28;96519;-32
2023/04/20 00:18:27;;;;;;;0.90;0.68;;;;;;;7.95;44.97;102464.34;4995977;28;96776;-32
2023/04/20 00:20:52;;;;;;;0.88;0.43;;;;;;;7.99;45.65;102468.75;4995657;28;97512;-30
2023/04/20 00:23:18;;;;;;;0.63;0.50;;;;;;;7.96;45.69;102460.75;4995290;28;99037;-32
2023/04/20 00:25:43;;;;;;;0.93;0.40;;;;;;;7.98;45.89;102466.06;4995299;28;96595;-31
2023/04/20 00:28:08;;;;;;;2.10;1.02;;;;;;;7.96;45.77;102457.13;4994239;28;96830;-31
2023/04/20 00:30:34;;;;;;;0.98;0.77;;;;;;;8.00;46.28;102464.22;4994871;28;98146;-31
2023/04/20 00:32:59;;;;;;;2.55;0.70;;;;;;;8.01;46.29;102466.91;4995588;28;99574;-31
2023/04/20 00:35:25;;;;;;;0.95;0.73;;;;;;;7.95;45.60;102460.75;4995572;28;96610;-32
2023/04/20 00:37:50;;;;;;;1.27;0.77;;;;;;;7.92;46.30;102461.72;4995624;28;96762;-31
2023/04/20 00:40:15;;;;;;;1.17;0.70;;;;;;;7.93;46.40;102457.22;4994344;28;99797;-31
2023/04/20 00:42:41;;;;;;;1.10;0.80;;;;;;;7.90;46.40;102460.00;4995109;28;98274;-32
2023/04/20 00:45:07;;;;;;;4.90;1.02;;;;;;;7.91;46.43;102457.25;4995654;28;96478;-31
2023/04/20 00:47:32;;;;;;;4.20;1.23;;;;;;;7.86;46.40;102448.38;4994041;28;96883;-31
2023/04/20 00:49:58;;;;;;;1.70;0.98;;;;;;;7.88;46.38;102457.31;4995209;28;97919;-32
2023/04/20 00:52:23;;;;;;;1.33;0.63;;;;;;;7.85;46.38;102449.31;4995036;28;97768;-31
2023/04/20 00:54:49;;;;;;;1.20;0.75;;;;;;;7.80;46.81;102446.72;4995375;28;96686;-30
2023/04/20 00:57:18;;;;;;;0.68;0.60;;;;;;;7.76;46.62;102438.75;4995606;28;96789;-31
2023/04/20 00:59:43;;;;;;;0.80;0.73;;;;;;;7.76;46.49;102436.03;4993621;28;100773;-31
2023/04/20 01:02:09;;;;;;;1.52;1.13;;;;;;;7.74;46.94;102440.59;4994003;28;97516;-31
2023/04/20 01:04:38;;;;;;;0.65;0.50;;;;;;;7.69;46.79;102437.13;4994778;28;96634;-31
2023/04/20 01:07:04;;;;;;;3.03;0.85;;;;;;;7.74;47.04;102427.09;4995051;28;96800;-31
2023/04/20 01:09:29;;;;;;;0.85;0.65;;;;;;;7.70;47.00;102433.47;4993244;28;100887;-31
2023/04/20 01:11:55;;;;;;;1.98;0.57;;;;;;;7.71;47.16;102427.19;4995250;28;97243;-31
2023/04/20 01:14:20;;;;;;;0.60;0.45;;;;;;;7.71;47.07;102413.69;4994327;28;96607;-30
2023/04/20 01:16:46;;;;;;;1.65;1.33;;;;;;;7.69;47.19;102416.41;4994055;28;96723;-31
2023/04/20 01:19:11;;;;;;;1.65;0.60;;;;;;;7.72;47.65;102413.63;4994925;28;97815;-32
2023/04/20 01:21:37;;;;;;;1.58;0.73;;;;;;;7.76;47.87;102411.78;4995448;28;96496;-30
2023/04/20 01:24:02;;;;;;;4.68;0.80;;;;;;;7.76;47.90;102395.59;4994816;28;96649;-30
2023/04/20 01:26:28;;;;;;;0.82;0.65;;;;;;;7.80;48.13;102389.19;4994901;28;96911;-31
2023/04/20 01:28:53;;;;;;;1.95;0.70;;;;;;;7.80;47.61;102391.91;4994170;28;97723;-30
2023/04/20 01:31:18;;;;;;;0.90;0.45;;;;;;;7.79;47.27;102384.72;4994172;28;97212;-31
2023/04/20 01:33:44;;;;;;;0.75;0.35;;;;;;;7.77;47.38;102379.38;4994948;28;96520;-30
2023/04/20 01:36:09;;;;;;;1.10;1.00;;;;;;;7.76;47.30;102387.50;4994611;28;96797;-30
2023/04/20 01:38:35;;;;;;;0.70;0.40;;;;;;;7.70;47.41;102388.53;4993999;28;99819;-31
2023/04/20 01:41:04;;;;;;;0.95;0.73;;;;;;;7.69;47.69;102373.28;4994445;28;97856;-30
2023/04/20 01:43:29;;;;;;;1.42;0.47;;;;;;;7.67;47.73;102375.13;4994693;28;96575;-31
2023/04/20 01:45:55;;;;;;;0.90;0.70;;;;;;;7.66;47.41;102368.84;4994978;28;96655;-31
2023/04/20 01:48:20;;;;;;;1.23;0.60;;;;;;;7.61;47.64;102359.97;4994357;28;97461;-31
2023/04/20 01:50:49;;;;;;;1.85;0.73;;;;;;;7.63;47.70;102360.84;4994568;28;97788;-31
2023/04/20 01:53:14;;;;;;;0.63;0.45;;;;;;;7.66;47.91;102349.97;4993832;28;96665;-31
2023/04/20 01:55:40;;;;;;;0.82;0.60;;;;;;;7.60;47.79;102355.53;4994660;28;96759;-30
2023/04/20 01:58:05;;;;;;;0.85;0.45;;;;;;;7.65;48.19;102363.47;4994243;28;99267;-31
2023/04/20 02:00:30;;;;;;;1.67;0.47;;;;;;;7.63;48.30;102358.13;4994609;28;97111;-32
2023/04/20 02:02:56;;;;;;;7.32;0.95;;;;;;;7.63;48.26;102355.44;4994398;28;96757;-30
2023/04/20 02:05:21;;;;;;;1.33;0.77;;;;;;;7.64;48.37;102348.22;4994409;28;96817;-32
2023/04/20 02:07:47;;;;;;;1.65;0.68;;;;;;;7.65;48.69;102353.59;4993646;28;99246;-31
2023/04/20 02:10:12;;;;;;;0.75;0.63;;;;;;;7.65;48.73;102353.59;4994622;28;97774;-31
2023/04/20 02:12:37;;;;;;;2.28;1.02;;;;;;;7.65;48.55;102353.59;4994473;28;96470;-31
2023/04/20 02:15:04;;;;;;;0.60;0.40;;;;;;;7.54;48.46;102347.56;4994194;28;96933;-31
2023/04/20 02:17:31;;;;;;;1.27;0.85;;;;;;;7.52;48.88;102349.41;4992037;28;100883;-31
2023/04/20 02:19:56;;;;;;;0.77;0.70;;;;;;;7.48;49.30;102339.63;4992381;28;101264;-31
2023/04/20 02:22:22;;;;;;;0.47;0.40;;;;;;;7.48;49.30;102339.63;4994168;28;96720;-31
2023/04/20 02:24:47;;;;;;;2.03;1.10;;;;;;;7.49;49.89;102338.72;4995245;28;96797;-31
2023/04/20 02:27:12;;;;;;;1.15;0.75;;;;;;;7.50;49.41;102335.09;4997459;28;97928;-31
2023/04/20 02:29:38;;;;;;;1.08;0.70;;;;;;;7.47;49.57;102327.09;4995775;28;99144;-30
2023/04/20 02:32:04;;;;;;;0.30;0.22;;;;;;;7.47;49.92;102332.47;4997411;28;96838;-31
2023/04/20 02:34:29;;;;;;;0.88;0.70;;;;;;;7.46;49.59;102325.31;4997703;28;96921;-32
2023/04/20 02:36:54;;;;;;;1.23;0.73;;;;;;;7.44;50.16;102321.78;4996917;28;99232;-32
2023/04/20 02:39:20;;;;;;;0.85;0.63;;;;;;;7.42;50.05;102320.94;4995836;28;100676;-30
2023/04/20 02:41:45;;;;;;;0.95;0.57;;;;;;;7.42;50.76;102307.44;4997081;28;96521;-30
2023/04/20 02:44:10;;;;;;;1.48;0.90;;;;;;;7.44;50.76;102319.09;4997383;28;96747;-31
2023/04/20 02:46:36;;;;;;;1.15;0.80;;;;;;;7.43;50.61;102314.59;4997088;28;97906;-33
2023/04/20 02:49:02;;;;;;;1.40;0.73;;;;;;;7.45;51.69;102312.75;4996717;28;99733;-33
2023/04/20 02:51:28;;;;;;;3.20;1.00;;;;;;;7.44;51.53;102306.47;4995647;28;96740;-30
2023/04/20 02:53:54;;;;;;;1.15;0.65;;;;;;;7.40;52.17;102306.59;4995866;28;96862;-30
2023/04/20 02:56:20;;;;;;;1.20;0.85;;;;;;;7.41;52.42;102297.56;4995467;28;100796;-31
2023/04/20 02:58:47;;;;;;;0.98;0.50;;;;;;;7.44;52.49;102302.91;4997181;28;99271;-30
2023/04/20 03:01:12;;;;;;;1.48;1.02;;;;;;;7.37;52.25;102296.78;4995665;28;96591;-31
2023/04/20 03:03:38;;;;;;;1.42;0.60;;;;;;;7.38;52.49;102290.44;4997285;28;96764;-30
2023/04/20 03:06:03;;;;;;;1.85;0.70;;;;;;;7.38;54.29;102295.84;4995831;28;99637;-32
2023/04/20 03:08:29;;;;;;;1.35;1.00;;;;;;;7.37;53.74;102295.91;4996422;28;98872;-31
2023/04/20 03:10:54;;;;;;;1.23;0.70;;;;;;;7.35;53.85;102289.66;4997186;28;96440;-31
2023/04/20 03:13:19;;;;;;;1.58;0.98;;;;;;;7.34;54.89;102282.47;4996852;28;96803;-31
2023/04/20 03:15:45;;;;;;;1.85;1.20;;;;;;;7.34;55.14;102290.56;4996294;28;99510;-31
2023/04/20 03:18:10;;;;;;;2.90;1.13;;;;;;;7.39;54.61;102283.28;4996521;28;99575;-30
2023/04/20 03:20:36;;;;;;;1.55;1.33;;;;;;;7.40;55.49;102274.25;4996653;28;96828;-30
2023/04/20 03:23:01;;;;;;;2.70;0.93;;;;;;;7.44;56.60;102275.94;4997246;28;96761;-30
2023/04/20 03:25:27;;;;;;;3.50;0.93;;;;;;;7.45;56.15;102275.00;4996639;28;97944;-30
2023/04/20 03:27:52;;;;;;;0.93;0.75;;;;;;;7.44;54.99;102275.94;4996318;28;99230;-31
2023/04/20 03:30:17;;;;;;;1.65;1.02;;;;;;;7.40;57.25;102264.34;4996038;28;96848;-32
2023/04/20 03:32:43;;;;;;;3.88;0.85;;;;;;;7.33;57.58;102262.72;4996611;28;96853;-31
2023/04/20 03:35:09;;;;;;;1.05;0.70;;;;;;;7.33;56.81;102256.47;4996196;28;98064;-31
2023/04/20 03:37:36;;;;;;;1.42;1.05;;;;;;;7.31;57.07;102259.19;4996052;28;97805;-31
2023/04/20 03:40:02;;;;;;;1.20;0.95;;;;;;;7.34;57.79;102260.91;4995161;28;96593;-30
2023/04/20 03:42:29;;;;;;;3.95;1.25;;;;;;;7.33;57.16;102253.75;4996683;28;96743;-31
2023/04/20 03:44:54;;;;;;;1.00;0.88;;;;;;;7.39;56.18;102261.72;4996050;28;99209;-30
2023/04/20 03:47:19;;;;;;;1.23;1.13;;;;;;;7.38;56.69;102239.22;4996639;28;97972;-30
2023/04/20 03:49:45;;;;;;;2.13;1.23;;;;;;;7.43;56.93;102244.50;4996072;28;96643;-30
2023/04/20 03:52:10;;;;;;;1.77;1.05;;;;;;;7.46;57.59;102244.44;4996301;28;96762;-31
2023/04/20 03:54:35;;;;;;;1.95;1.10;;;;;;;7.46;56.94;102236.38;4995561;28;99969;-30
2023/04/20 03:57:01;;;;;;;2.72;0.95;;;;;;;7.47;58.41;102234.53;4995703;28;99114;-30
2023/04/20 03:59:26;;;;;;;1.65;0.77;;;;;;;7.46;58.38;102228.28;4995991;28;96478;-31
2023/04/20 04:01:53;;;;;;;2.30;1.23;;;;;;;7.44;58.62;102216.63;4995946;28;96944;-32
2023/04/20 04:04:18;;;;;;;1.50;1.08;;;;;;;7.41;58.30;102219.41;4994450;28;100686;-31
2023/04/20 04:06:43;;;;;;;2.22;0.93;;;;;;;7.45;57.49;102223.78;4995502;28;99233;-30
2023/04/20 04:09:09;;;;;;;1.40;1.02;;;;;;;7.45;57.37;102221.97;4996541;28;96496;-31
2023/04/20 04:11:34;;;;;;;1.48;0.93;;;;;;;7.50;59.16;102234.47;4996611;28;96827;-32
2023/04/20 04:13:59;;;;;;;1.80;1.13;;;;;;;7.47;58.98;102231.84;4995499;28;99204;-30
2023/04/20 04:16:25;;;;;;;1.15;1.00;;;;;;;7.51;58.42;102226.34;4995737;28;97822;-33
2023/04/20 04:18:50;;;;;;;1.58;0.75;;;;;;;7.53;60.11;102223.56;4995533;28;96555;-34
2023/04/20 04:21:15;;;;;;;0.88;0.57;;;;;;;7.50;60.95;102215.59;4995878;28;96721;-30
2023/04/20 04:23:41;;;;;;;1.02;0.93;;;;;;;7.50;58.61;102215.59;4995671;28;97787;-30
2023/04/20 04:26:07;;;;;;;5.70;1.15;;;;;;;7.49;59.20;102206.63;4995511;28;97887;-31
2023/04/20 04:28:32;;;;;;;1.05;0.85;;;;;;;7.56;59.52;102208.22;4994344;28;96683;-30
2023/04/20 04:31:00;;;;;;;1.98;1.25;;;;;;;7.56;59.69;102205.53;4995303;28;96810;-30
2023/04/20 04:33:25;;;;;;;1.10;0.80;;;;;;;7.54;59.42;102193.00;4994041;28;100841;-32
2023/04/20 04:35:52;;;;;;;1.67;1.17;;;;;;;7.54;59.09;102187.63;4995213;28;98855;-31
2023/04/20 04:38:17;;;;;;;3.33;1.15;;;;;;;7.53;60.07;102184.03;4994189;28;96733;-32
2023/04/20 04:40:44;;;;;;;1.70;1.00;;;;;;;7.56;60.03;102183.94;4995427;28;96851;-31
2023/04/20 04:43:10;;;;;;;0.95;0.60;;;;;;;7.57;59.97;102180.31;4994661;28;99954;-30
2023/04/20 04:45:39;;;;;;;1.48;0.93;;;;;;;7.57;59.64;102169.53;4995039;28;99299;-31
2023/04/20 04:48:05;;;;;;;1.38;0.98;;;;;;;7.59;59.25;102173.06;4992958;28;97186;-33
2023/04/20 04:50:31;;;;;;;1.85;0.47;;;;;;;7.58;60.96;102170.41;4994057;28;96755;-31
2023/04/20 04:52:56;;;;;;;1.13;0.73;;;;;;;7.59;61.78;102167.69;4995042;28;97488;-31
2023/04/20 04:55:21;;;;;;;1.63;0.80;;;;;;;7.59;59.80;102164.97;4994892;28;99101;-30
2023/04/20 04:57:47;;;;;;;1.92;0.85;;;;;;;7.61;60.20;102165.84;4995039;28;100173;-30
2023/04/20 05:00:13;;;;;;;0.70;0.52;;;;;;;7.62;60.82;102153.22;4995829;28;96780;-30
2023/04/20 05:02:38;;;;;;;1.27;0.98;;;;;;;7.65;60.88;102158.53;4994543;28;99343;-30
2023/04/20 05:05:04;;;;;;;0.75;0.50;;;;;;;7.64;60.63;102149.56;4994847;28;99466;-32
2023/04/20 05:07:30;;;;;;;1.67;0.85;;;;;;;7.71;61.21;102152.09;4994753;28;96558;-30
2023/04/20 05:09:55;;;;;;;1.50;0.80;;;;;;;7.68;61.05;102138.69;4995054;28;96800;-31
2023/04/20 05:12:20;;;;;;;0.77;0.55;;;;;;;7.66;61.53;102128.81;4994836;28;97904;-31
2023/04/20 05:14:46;;;;;;;1.08;0.75;;;;;;;7.71;62.80;102130.50;4994796;28;97849;-32
2023/04/20 05:17:11;;;;;;;1.88;1.00;;;;;;;7.75;60.89;102126.81;4995102;28;96586;-30
2023/04/20 05:19:36;;;;;;;1.35;0.52;;;;;;;7.77;61.65;102124.94;4994887;28;96716;-31
2023/04/20 05:22:02;;;;;;;3.00;0.55;;;;;;;7.76;61.41;102115.94;4994425;28;97821;-31
2023/04/20 05:24:27;;;;;;;1.13;0.50;;;;;;;7.83;60.97;102127.47;4995066;28;97783;-31
2023/04/20 05:26:52;;;;;;;3.28;1.05;;;;;;;7.84;62.74;102118.41;4994946;28;96495;-32
2023/04/20 05:29:18;;;;;;;0.45;0.43;;;;;;;7.85;63.36;102117.50;4994781;28;96595;-30
2023/04/20 05:31:44;;;;;;;1.35;0.88;;;;;;;7.85;62.47;102120.22;4993727;28;97272;-32
2023/04/20 05:34:09;;;;;;;2.42;0.55;;;;;;;7.88;63.06;102112.00;4992623;28;100727;-30
2023/04/20 05:36:35;;;;;;;0.88;0.70;;;;;;;7.90;62.56;102110.16;4993178;28;96564;-30
2023/04/20 05:39:00;;;;;;;2.88;0.98;;;;;;;7.95;61.73;102118.13;4994678;28;96615;-32
2023/04/20 05:41:26;;;;;;;1.35;0.98;;;;;;;7.96;61.36;102120.78;4991386;28;97860;-30
2023/04/20 05:43:53;;;;;;;1.83;0.70;;;;;;;7.96;62.26;102112.69;4994393;28;97767;-31
2023/04/20 05:46:19;;;;;;;1.83;0.82;;;;;;;8.02;61.97;102119.69;4993184;28;96660;-33
2023/04/20 05:48:44;;;;;;;1.58;0.70;;;;;;;8.02;61.62;102111.59;4990716;28;96891;-33
2023/04/20 05:51:10;;;;;;;4.75;0.55;;;;;;;8.02;63.03;102104.38;4991776;28;99561;-33
2023/04/20 05:53:35;;;;;;;0.73;0.45;;;;;;;8.06;63.18;102114.16;4991921;28;97268;-35
2023/04/20 05:56:01;;;;;;;0.90;0.60;;;;;;;8.06;62.60;102116.84;4991157;28;96940;-31
2023/04/20 05:58:26;;;;;;;1.08;0.70;;;;;;;8.07;63.61;102115.03;4990867;28;97305;-33
2023/04/20 06:00:52;;;;;;;0.32;0.10;;;;;;;8.06;63.26;102105.19;4993997;28;97272;-31
2023/04/20 06:03:17;;;;;;;1.48;0.50;;;;;;;8.14;62.22;102118.44;4995195;28;99139;-31
2023/04/20 06:05:42;;;;;;;0.60;0.40;;;;;;;8.17;62.89;102123.72;4996082;28;96985;-31
2023/04/20 06:08:08;;;;;;;1.30;0.50;;;;;;;8.17;62.87;102121.03;4995956;28;97024;-30
2023/04/20 06:10:33;;;;;;;0.70;0.60;;;;;;;8.21;62.23;102128.13;4995652;28;97882;-32
2023/04/20 06:12:59;;;;;;;0.82;0.47;;;;;;;8.23;61.30;102120.84;4997257;28;98825;-31
2023/04/20 06:15:24;;;;;;;1.52;1.00;;;;;;;8.24;60.53;102112.69;4997766;28;96656;-31
2023/04/20 06:17:49;;;;;;;4.32;0.85;;;;;;;8.28;60.24;102129.69;4997715;28;96740;-31
2023/04/20 06:20:18;;;;;;;3.63;0.77;;;;;;;8.31;60.25;102124.19;4997104;28;97849;-30
2023/04/20 06:22:45;;;;;;;6.80;0.98;;;;;;;8.31;59.73;102137.69;4995914;28;100951;-30
2023/04/20 06:25:10;;;;;;;1.10;0.90;;;;;;;8.30;59.20;102126.00;4996202;28;96642;-30
2023/04/20 06:27:35;;;;;;;2.03;1.08;;;;;;;8.33;58.81;102119.63;4997641;28;96795;-31
2023/04/20 06:30:01;;;;;;;0.80;0.55;;;;;;;8.35;58.61;102111.50;4997171;28;100590;-31
2023/04/20 06:32:26;;;;;;;1.67;0.57;;;;;;;8.35;58.71;102109.66;4996697;28;98788;-31
2023/04/20 06:34:51;;;;;;;0.80;0.70;;;;;;;8.34;58.67;102107.00;4997678;28;96594;-30
2023/04/20 06:37:18;;;;;;;1.30;0.88;;;;;;;8.32;58.24;102103.47;4998112;28;96798;-30
2023/04/20 06:39:43;;;;;;;0.80;0.60;;;;;;;8.29;58.50;102101.75;4995836;28;101370;-31
2023/04/20 06:42:09;;;;;;;1.00;0.68;;;;;;;8.31;58.42;102102.59;4997128;28;97255;-31
2023/04/20 06:44:34;;;;;;;5.72;0.77;;;;;;;8.35;58.08;102098.88;4995449;28;96877;-30
2023/04/20 06:46:59;;;;;;;1.25;0.63;;;;;;;8.36;58.16;102115.94;4997030;28;96845;-30
2023/04/20 06:49:25;;;;;;;1.30;0.90;;;;;;;8.35;58.28;102098.00;4996568;28;98671;-31
2023/04/20 06:51:50;;;;;;;0.50;0.40;;;;;;;8.32;57.79;102080.06;4997075;28;96905;-30
2023/04/20 06:54:16;;;;;;;1.73;1.00;;;;;;;8.40;57.94;102090.66;4997310;28;96656;-30
2023/04/20 06:56:41;;;;;;;0.50;0.50;;;;;;;8.38;57.87;102081.69;4996127;28;96944;-30
2023/04/20 06:59:06;;;;;;;1.10;0.73;;;;;;;8.34;57.73;102085.41;4996927;28;98056;-31
2023/04/20 07:01:32;;;;;;;2.17;0.95;;;;;;;8.34;57.78;102080.00;4996903;28;98954;-31
2023/04/20 07:03:57;;;;;;;0.80;0.55;;;;;;;8.35;57.85;102079.09;4997289;28;96557;-33
2023/04/20 07:06:24;;;;;;;3.35;0.98;;;;;;;8.31;57.98;102070.19;4997014;28;96831;-32
2023/04/20 07:08:49;;;;;;;1.88;1.20;;;;;;;8.29;57.81;102070.25;4996063;28;99707;-30
2023/04/20 07:11:14;;;;;;;1.67;0.65;;;;;;;8.27;58.25;102069.44;4996010;28;101446;-31
2023/04/20 07:13:40;;;;;;;1.85;0.93;;;;;;;8.28;58.42;102081.09;4997045;28;96538;-30
2023/04/20 07:16:05;;;;;;;1.75;0.77;;;;;;;8.25;58.89;102073.09;4996675;28;96796;-31
2023/04/20 07:18:31;;;;;;;1.38;0.68;;;;;;;8.23;59.82;102072.28;4996469;28;99199;-32
2023/04/20 07:20:56;;;;;;;1.20;0.77;;;;;;;8.17;59.43;102072.44;4996697;28;97833;-31
2023/04/20 07:23:21;;;;;;;1.85;0.90;;;;;;;8.16;60.09;102081.50;4997283;28;96547;-30
2023/04/20 07:25:47;;;;;;;1.38;0.95;;;;;;;8.14;60.40;102083.34;4997169;28;96780;-31
2023/04/20 07:28:12;;;;;;;2.45;0.85;;;;;;;8.13;60.49;102089.66;4996530;28;97937;-31
2023/04/20 07:30:37;;;;;;;1.15;0.77;;;;;;;8.13;61.08;102086.97;4995896;28;99492;-32
2023/04/20 07:33:03;;;;;;;1.05;0.77;;;;;;;8.12;61.72;102093.31;4996203;28;96499;-31
2023/04/20 07:35:28;;;;;;;1.05;0.70;;;;;;;8.08;61.87;102098.81;4996528;28;97362;-31
2023/04/20 07:37:53;;;;;;;1.02;0.80;;;;;;;8.03;61.34;102097.16;4996352;28;97927;-30
2023/04/20 07:40:19;;;;;;;0.95;0.73;;;;;;;7.96;62.21;102083.00;4996446;28;97266;-31
2023/04/20 07:42:44;;;;;;;1.83;1.42;;;;;;;7.96;63.30;102095.59;4996726;28;96458;-31
2023/04/20 07:45:12;;;;;;;1.70;1.00;;;;;;;7.88;64.73;102093.13;4996338;28;96834;-31
2023/04/20 07:47:38;;;;;;;3.15;1.27;;;;;;;7.81;64.73;102078.06;4995834;28;99886;-32
2023/04/20 07:50:04;;;;;;;2.25;1.17;;;;;;;7.80;65.39;102090.66;4995045;28;100622;-30
2023/04/20 07:52:30;;;;;;;0.75;0.40;;;;;;;7.75;65.04;102087.22;4995021;28;97127;-31
2023/04/20 07:54:57;;;;;;;0.57;0.55;;;;;;;7.75;65.40;102086.34;4996457;28;96769;-31
2023/04/20 07:57:23;;;;;;;0.88;0.57;;;;;;;7.68;65.84;102091.03;4995291;28;98962;-32
2023/04/20 07:59:48;;;;;;;1.52;0.85;;;;;;;7.66;65.83;102088.38;4995705;28;97430;-30
2023/04/20 08:02:14;;;;;;;3.97;0.95;;;;;;;7.68;66.31;102093.75;4996235;28;96524;-30
2023/04/20 08:04:40;;;;;;;2.45;0.80;;;;;;;7.61;66.97;102084.94;4994630;28;96774;-31
2023/04/20 08:07:05;;;;;;;1.45;0.57;;;;;;;7.64;66.15;102100.13;4995750;28;99388;-30
2023/04/20 08:09:31;;;;;;;0.55;0.40;;;;;;;7.62;68.05;102105.56;4996013;28;97894;-32
2023/04/20 08:11:56;;;;;;;1.65;0.63;;;;;;;7.66;68.52;102107.25;4996042;28;97721;-33
2023/04/20 08:14:22;;;;;;;3.65;0.98;;;;;;;7.59;68.07;102110.19;4996116;28;96780;-30
2023/04/20 08:16:47;;;;;;;1.88;0.70;;;;;;;7.49;68.18;102106.00;4996069;28;97302;-30
2023/04/20 08:19:12;;;;;;;2.03;0.88;;;;;;;7.49;69.20;102112.25;4995632;28;97773;-31
2023/04/20 08:21:39;;;;;;;1.33;1.10;;;;;;;7.50;68.67;102122.09;4995566;28;96450;-32
2023/04/20 08:24:06;;;;;;;2.88;1.20;;;;;;;7.50;69.89;102105.03;4993575;28;96804;-33
2023/04/20 08:26:32;;;;;;;2.83;0.70;;;;;;;7.49;68.50;102089.81;4994163;28;100644;-30
2023/04/20 08:28:58;;;;;;;2.47;1.30;;;;;;;7.43;68.38;102091.72;4995465;28;97259;-30
2023/04/20 08:31:23;;;;;;;1.13;0.70;;;;;;;7.38;70.12;102092.78;4993749;28;96815;-31
2023/04/20 08:33:49;;;;;;;1.30;0.70;;;;;;;7.36;70.79;102087.44;4995836;28;96907;-30
2023/04/20 08:36:14;;;;;;;0.90;0.75;;;;;;;7.28;70.54;102084.09;4995347;28;97323;-31
2023/04/20 08:38:40;;;;;;;1.67;1.02;;;;;;;7.31;70.57;102075.03;4995451;28;99249;-30
2023/04/20 08:41:06;;;;;;;1.15;1.05;;;;;;;7.30;70.93;102073.28;4994477;28;96590;-30
2023/04/20 08:43:31;;;;;;;1.30;0.80;;;;;;;7.29;71.90;102076.88;4995336;28;96479;-30
2023/04/20 08:45:59;;;;;;;1.00;0.70;;;;;;;7.26;73.17;102077.84;4994635;28;97844;-31
2023/04/20 08:48:25;;;;;;;1.30;0.93;;;;;;;7.26;70.83;102080.53;4993581;28;100891;-30
2023/04/20 08:50:53;;;;;;;4.88;1.15;;;;;;;7.32;70.71;102080.38;4995241;28;96614;-30
2023/04/20 08:53:18;;;;;;;1.13;0.73;;;;;;;7.31;71.21;102081.31;4993911;28;96888;-30
2023/04/20 08:55:43;;;;;;;1.83;1.33;;;;;;;7.30;70.85;102067.88;4995119;28;97890;-33
2023/04/20 08:58:09;;;;;;;2.42;1.40;;;;;;;7.33;71.18;102057.00;4994963;28;97283;-30
2023/04/20 09:00:34;;;;;;;1.70;0.82;;;;;;;7.35;70.85;102071.31;4995500;28;96571;-31
2023/04/20 09:03:00;;;;;;;1.88;1.00;;;;;;;7.37;71.52;102061.41;4995410;28;96808;-31
2023/04/20 09:05:27;;;;;;;1.23;0.88;;;;;;;7.44;70.64;102061.16;4994720;28;99382;-30
2023/04/20 09:08:00;;;;;;;1.95;0.90;;;;;;;7.49;72.67;102060.16;4993540;28;101003;-30
2023/04/20 09:10:37;;;;;;;2.35;1.63;;;;;;;7.52;71.77;102065.44;4994862;28;96551;-30
2023/04/20 09:13:02;;;;;;;1.95;1.25;;;;;;;7.58;71.24;102058.06;4993838;28;96760;-30
2023/04/20 09:15:30;;;;;;;1.85;1.00;;;;;;;7.57;71.79;102058.97;4994495;28;99628;-33
2023/04/20 09:17:56;;;;;;;3.42;1.48;;;;;;;7.57;71.56;102056.28;4993227;28;100917;-31
2023/04/20 09:20:28;;;;;;;1.25;0.82;;;;;;;7.60;71.63;102053.53;4993765;28;96627;-30
2023/04/20 09:22:54;;;;;;;2.08;1.10;;;;;;;7.63;71.95;102049.84;4993549;28;96813;-31
2023/04/20 09:25:20;;;;;;;1.08;0.68;;;;;;;7.63;71.89;102049.84;4994591;28;97975;-30
2023/04/20 09:27:57;;;;;;;1.92;0.93;;;;;;;7.61;71.22;102047.19;4994774;28;99112;-31
2023/04/20 09:30:22;;;;;;;3.05;0.82;;;;;;;7.60;71.96;102050.81;4993366;28;96566;-31
2023/04/20 09:32:48;;;;;;;2.17;1.27;;;;;;;7.57;72.47;102050.00;4976210;28;100312;-31
2023/04/20 09:35:22;;;;;;;1.02;0.75;;;;;;;7.51;72.21;102051.09;4973506;28;99301;-31
2023/04/20 09:37:48;;;;;;;3.67;1.42;;;;;;;7.49;72.54;102052.94;4974293;28;99414;-30
2023/04/20 09:40:13;;;;;;;1.30;0.90;;;;;;;7.50;72.93;102053.81;4975088;28;96497;-32
2023/04/20 09:42:41;;;;;;;1.63;0.88;;;;;;;7.44;72.84;102031.50;4975027;28;96643;-30
2023/04/20 09:45:07;;;;;;;1.45;0.75;;;;;;;7.49;72.16;102026.00;4973282;28;98965;-31
2023/04/20 09:47:35;;;;;;;1.10;0.77;;;;;;;7.51;73.61;102032.22;4973059;28;101881;-32
2023/04/20 09:50:03;;;;;;;5.43;1.70;;;;;;;7.61;72.33;102030.13;4973175;28;96622;-31
2023/04/20 09:52:29;;;;;;;1.27;0.88;;;;;;;7.64;72.51;102025.50;4973796;28;96814;-30
2023/04/20 09:54:56;;;;;;;1.55;1.02;;;;;;;7.69;71.88;102028.06;4973082;28;101047;-30
2023/04/20 09:57:23;;;;;;;1.60;1.08;;;;;;;7.82;71.73;102015.97;4973088;28;100840;-31
2023/04/20 09:59:50;;;;;;;2.22;1.30;;;;;;;7.97;71.45;102025.41;4972876;28;96640;-30
2023/04/20 10:02:15;;;;;;;1.33;0.80;;;;;;;8.01;71.71;102012.72;4973264;28;96799;-30
2023/04/20 10:04:54;;;;;;;1.17;0.75;;;;;;;8.09;72.05;102013.34;4974433;28;97234;-31
2023/04/20 10:07:28;;;;;;;1.75;1.13;;;;;;;8.12;71.56;102013.22;4972899;28;100815;-32
2023/04/20 10:10:09;;;;;;;1.83;1.60;;;;;;;8.13;70.64;102017.72;4973443;28;96655;-30
2023/04/20 10:12:51;;;;;;;1.08;0.95;;;;;;;8.08;71.53;102012.47;4973275;28;96795;-30
2023/04/20 10:15:17;;;;;;;1.15;1.02;;;;;;;8.14;72.02;102002.38;4973861;28;97908;-30
2023/04/20 10:17:43;;;;;;;1.80;1.10;;;;;;;8.17;71.44;101991.50;4973102;28;101091;-31
2023/04/20 10:20:23;;;;;;;2.95;1.38;;;;;;;8.29;70.60;101985.66;4973168;28;96627;-30
2023/04/20 10:22:51;;;;;;;1.38;1.15;;;;;;;8.38;70.71;101995.28;4973187;28;96871;-31
2023/04/20 10:25:22;;;;;;;2.53;0.80;;;;;;;8.44;70.43;101996.00;4972089;28;101506;-30
2023/04/20 10:27:56;;;;;;;3.42;1.45;;;;;;;8.69;69.81;102004.13;4972625;28;100781;-31
2023/04/20 10:30:23;;;;;;;3.17;1.67;;;;;;;8.70;69.49;102005.03;4972740;28;96615;-31
2023/04/20 10:32:48;;;;;;;2.72;1.40;;;;;;;8.66;69.54;101998.84;4991201;28;96849;-30
2023/04/20 10:35:15;;;;;;;2.33;1.30;;;;;;;8.69;69.73;101990.63;4992294;28;101040;-30
2023/04/20 10:37:50;;;;;;;2.35;1.45;;;;;;;8.70;70.23;101995.09;4992381;28;100828;-30
2023/04/20 10:40:23;;;;;;;3.45;1.38;;;;;;;8.67;69.88;101992.47;4993524;28;97266;-30
2023/04/20 10:42:48;;;;;;;1.30;0.82;;;;;;;8.62;70.44;101988.19;4993105;28;96769;-30
2023/04/20 10:45:14;;;;;;;3.85;1.02;;;;;;;8.67;70.13;101981.69;4993462;28;99154;-30
2023/04/20 10:47:39;;;;;;;1.80;1.27;;;;;;;8.77;69.95;101982.25;4996734;28;99171;-30
2023/04/20 10:50:09;;;;;;;2.65;1.40;;;;;;;8.83;69.99;101982.03;4996648;28;96687;-30
2023/04/20 10:52:36;;;;;;;1.88;1.23;;;;;;;8.99;69.78;101979.66;4997540;28;96853;-30
2023/04/20 10:55:02;;;;;;;1.75;1.00;;;;;;;9.14;70.03;101967.38;4995348;28;101568;-30
2023/04/20 10:57:28;;;;;;;2.22;1.15;;;;;;;9.19;68.99;101976.19;4995495;28;101344;-30
2023/04/20 10:59:53;;;;;;;2.83;1.40;;;;;;;9.19;68.72;101975.31;4997266;28;96593;-30
2023/04/20 11:02:19;;;;;;;1.90;1.20;;;;;;;9.25;68.46;101977.81;4997550;28;96755;-31
2023/04/20 11:04:44;;;;;;;2.53;1.75;;;;;;;9.23;68.55;101969.75;4996624;28;99261;-31
2023/04/20 11:07:13;;;;;;;1.33;0.95;;;;;;;9.22;68.43;101969.78;4997121;28;99216;-30
2023/04/20 11:09:41;;;;;;;1.42;1.08;;;;;;;9.18;68.89;101970.88;4995718;28;96538;-32
2023/04/20 11:12:10;;;;;;;1.75;0.93;;;;;;;9.16;68.32;101962.81;4995481;28;96897;-30
2023/04/20 11:14:39;;;;;;;2.47;1.70;;;;;;;9.17;68.59;101974.50;4996046;28;99292;-30
2023/04/20 11:17:05;;;;;;;2.08;1.40;;;;;;;9.08;68.71;101973.00;4996461;28;99274;-31
2023/04/20 11:19:32;;;;;;;2.97;1.48;;;;;;;9.04;68.36;101968.69;4995443;28;96674;-31
2023/04/20 11:21:58;;;;;;;3.00;1.20;;;;;;;9.09;68.58;101967.56;4995325;28;96761;-31
2023/04/20 11:24:29;;;;;;;2.88;1.60;;;;;;;9.15;68.49;101955.63;4996418;28;99611;-33
2023/04/20 11:26:55;;;;;;;2.10;1.27;;;;;;;9.27;67.71;101951.56;4996583;28;97951;-30